Time;durP1;ratioP1;P1;durP2;ratioP2;P2;SDS_P1;SDS_P2;PMS_P1;PMS_P2;Temp;Humidity;BMP_temperature;BMP_pressure;BME280_temperature;BME280_humidity;BME280_pressure;Samples;Min_cycle;Max_cycle;Signal;HPM_P1;HPM_P2
2024/02/26 00:23:45;;;;;;;5.45;2.60;;;;;;;12.13;58.73;98951.13;5035804;28;20076;-96
2024/02/26 00:26:11;;;;;;;4.20;2.30;;;;;;;12.16;58.18;98938.97;4987905;28;20041;-96
2024/02/26 00:28:37;;;;;;;3.65;2.17;;;;;;;12.17;58.06;98935.16;4987020;28;20088;-96
2024/02/26 00:31:05;;;;;;;3.10;2.30;;;;;;;12.16;57.60;98938.97;4987765;28;20115;-96
2024/02/26 00:33:31;;;;;;;4.07;2.45;;;;;;;12.22;57.46;98940.53;4987614;28;20033;-96
2024/02/26 00:35:56;;;;;;;4.05;2.17;;;;;;;12.27;57.34;98940.44;5003006;28;20064;-96
2024/02/26 00:38:22;;;;;;;5.35;2.00;;;;;;;12.27;56.77;98939.66;4986923;28;20126;-96
2024/02/26 00:40:47;;;;;;;3.00;2.17;;;;;;;12.28;56.62;98927.75;4987405;28;20033;-96
2024/02/26 00:43:13;;;;;;;5.32;2.47;;;;;;;12.30;56.63;98929.03;4987728;28;20021;-96
2024/02/26 00:45:39;;;;;;;3.65;2.00;;;;;;;12.39;56.19;98931.09;5003645;28;20095;-96
2024/02/26 00:48:05;;;;;;;2.88;2.00;;;;;;;12.42;55.82;98934.03;5002847;28;20021;-96
2024/02/26 00:50:31;;;;;;;5.13;2.40;;;;;;;12.45;56.26;98930.75;4987682;28;20029;-95
2024/02/26 00:52:57;;;;;;;3.15;2.03;;;;;;;12.40;55.82;98917.31;4986855;28;20032;-96
2024/02/26 00:55:22;;;;;;;2.60;1.80;;;;;;;12.47;55.68;98925.03;5019880;28;20479;-96
2024/02/26 00:57:48;;;;;;;3.60;2.15;;;;;;;12.47;55.72;98916.94;4986463;28;20025;-96
2024/02/26 01:00:14;;;;;;;5.35;2.38;;;;;;;12.46;55.30;98912.66;4987316;28;20013;-96
2024/02/26 01:02:42;;;;;;;4.22;1.90;;;;;;;12.53;55.57;98927.41;5019485;28;20021;-96
2024/02/26 01:05:11;;;;;;;2.17;1.65;;;;;;;12.45;55.38;98911.03;4987130;28;20025;-96
2024/02/26 01:07:36;;;;;;;4.45;2.20;;;;;;;12.49;55.52;98912.88;5019622;28;20029;-96
2024/02/26 01:10:03;;;;;;;4.72;2.10;;;;;;;12.48;55.48;98915.88;5002965;28;20032;-96
2024/02/26 01:12:28;;;;;;;3.67;2.17;;;;;;;12.44;55.78;98918.34;4986986;28;20029;-96
2024/02/26 01:14:54;;;;;;;2.83;1.70;;;;;;;12.46;55.18;98910.75;4986848;28;20052;-96
2024/02/26 01:17:19;;;;;;;2.75;1.80;;;;;;;12.43;55.74;98908.66;5002029;28;20368;-96
2024/02/26 01:19:45;;;;;;;5.13;2.08;;;;;;;12.47;55.50;98912.38;4985726;28;20109;-96
2024/02/26 01:22:11;;;;;;;6.10;2.30;;;;;;;12.42;55.90;98911.63;4985222;28;20053;-96
2024/02/26 01:24:36;;;;;;;5.18;2.03;;;;;;;12.45;56.07;98908.34;4985855;28;20079;-96
2024/02/26 01:27:02;;;;;;;3.78;2.25;;;;;;;12.43;55.71;98899.72;4985252;28;20053;-96
2024/02/26 01:29:28;;;;;;;3.20;2.10;;;;;;;12.46;55.82;98901.84;4986838;28;20032;-96
2024/02/26 01:31:54;;;;;;;6.07;2.50;;;;;;;12.53;55.90;98916.59;5002205;28;20045;-96
2024/02/26 01:34:20;;;;;;;4.47;3.10;;;;;;;12.45;55.89;98900.22;5002733;28;20029;-96
2024/02/26 01:36:46;;;;;;;11.00;4.30;;;;;;;12.57;55.69;98914.09;4986022;28;20079;-96
2024/02/26 01:39:12;;;;;;;11.05;5.10;;;;;;;12.40;56.22;98890.31;4986866;28;20112;-96
2024/02/26 01:41:40;;;;;;;11.90;4.60;;;;;;;12.48;56.30;98894.25;4986625;28;20014;-96
2024/02/26 01:44:09;;;;;;;8.63;4.30;;;;;;;12.48;56.42;98891.56;5002817;28;20033;-96
2024/02/26 01:46:37;;;;;;;7.80;3.92;;;;;;;12.55;57.15;98905.47;4987288;28;20033;-96
2024/02/26 01:49:03;;;;;;;9.90;4.75;;;;;;;12.41;57.70;98886.53;4991833;28;20021;-96
2024/02/26 01:51:29;;;;;;;9.27;4.90;;;;;;;12.56;58.65;98909.00;4989281;28;20128;-96
2024/02/26 01:53:55;;;;;;;14.18;5.43;;;;;;;12.37;59.06;98882.00;5007230;28;20048;-96
2024/02/26 01:56:21;;;;;;;10.30;5.60;;;;;;;12.31;59.18;98884.78;5005750;28;20033;-96
2024/02/26 01:58:46;;;;;;;10.18;5.10;;;;;;;12.28;59.65;98885.34;5005953;28;20384;-96
2024/02/26 02:01:12;;;;;;;11.70;5.47;;;;;;;12.21;59.86;98879.50;4989132;28;20026;-96
2024/02/26 02:03:38;;;;;;;17.67;6.55;;;;;;;12.18;59.75;98877.41;5005575;28;20025;-96
2024/02/26 02:06:04;;;;;;;11.68;5.70;;;;;;;12.12;59.68;98886.66;5021023;28;20025;-96
2024/02/26 02:08:29;;;;;;;14.93;6.57;;;;;;;12.06;59.73;98880.53;4988832;28;20063;-96
2024/02/26 02:10:55;;;;;;;28.60;9.57;;;;;;;12.04;59.72;98882.72;5004493;28;20116;-96
2024/02/26 02:13:20;;;;;;;18.42;7.15;;;;;;;12.05;59.54;98886.22;4988789;28;20120;-96
2024/02/26 02:15:46;;;;;;;20.75;9.85;;;;;;;12.09;59.56;98906.94;5005491;28;20018;-96
2024/02/26 02:18:12;;;;;;;18.75;8.90;;;;;;;11.98;60.02;98899.28;4989423;28;20021;-96
2024/02/26 02:20:37;;;;;;;12.20;6.78;;;;;;;11.92;60.50;98890.44;4989227;28;20557;-96
2024/02/26 02:23:03;;;;;;;9.30;4.72;;;;;;;11.95;60.31;98891.75;4989244;28;20475;-96
2024/02/26 02:25:29;;;;;;;9.25;4.05;;;;;;;11.88;60.41;98887.50;4988724;28;20029;-96
2024/02/26 02:27:54;;;;;;;10.32;3.47;;;;;;;11.80;60.55;98880.00;4989076;28;20013;-96
2024/02/26 02:30:24;;;;;;;3.55;2.65;;;;;;;11.75;60.39;98882.78;4988374;28;20059;-96
2024/02/26 02:32:50;;;;;;;4.38;2.50;;;;;;;11.79;60.32;98885.72;4989054;28;20029;-96
2024/02/26 02:35:15;;;;;;;6.07;2.80;;;;;;;11.77;60.42;98890.59;4989043;28;20380;-96
2024/02/26 02:37:43;;;;;;;4.95;2.85;;;;;;;11.69;60.53;98886.63;4988336;28;20025;-96
2024/02/26 02:40:09;;;;;;;4.53;2.50;;;;;;;11.75;60.24;98890.88;4989128;28;20082;-96
2024/02/26 02:42:35;;;;;;;3.92;2.33;;;;;;;11.75;60.35;98901.66;4988879;28;20471;-96
2024/02/26 02:45:00;;;;;;;5.30;2.78;;;;;;;11.76;60.95;98891.66;4988368;28;20080;-96
2024/02/26 02:47:26;;;;;;;5.15;2.83;;;;;;;11.72;61.24;98886.88;5005794;28;20025;-96
2024/02/26 02:49:52;;;;;;;3.70;2.75;;;;;;;11.90;61.22;98911.50;4989854;28;20032;-96
2024/02/26 02:52:17;;;;;;;9.23;2.60;;;;;;;11.78;60.61;98884.88;5005339;28;20049;-96
2024/02/26 02:54:43;;;;;;;4.22;2.70;;;;;;;11.91;60.43;98905.81;4989102;28;20103;-96
2024/02/26 02:57:09;;;;;;;3.72;2.58;;;;;;;11.99;60.60;98908.97;4989709;28;20081;-96
2024/02/26 02:59:35;;;;;;;9.68;3.17;;;;;;;11.88;60.43;98897.47;5005144;28;20110;-96
2024/02/26 03:02:01;;;;;;;5.90;3.33;;;;;;;11.88;61.10;98902.84;5005308;28;20028;-96
2024/02/26 03:04:26;;;;;;;4.93;2.65;;;;;;;11.88;60.22;98902.84;4988724;28;20021;-96
2024/02/26 03:06:52;;;;;;;5.20;2.80;;;;;;;12.05;60.14;98918.59;4988819;28;20029;-96
2024/02/26 03:09:18;;;;;;;5.53;2.65;;;;;;;12.00;59.76;98922.16;4988177;28;20021;-96
2024/02/26 03:11:43;;;;;;;5.07;2.53;;;;;;;11.97;59.16;98903.03;5004748;28;20025;-96
2024/02/26 03:14:09;;;;;;;4.05;2.80;;;;;;;11.94;59.30;98899.03;5003380;28;20025;-96
2024/02/26 03:16:35;;;;;;;4.55;2.42;;;;;;;12.01;58.63;98909.47;4988449;28;20025;-96
2024/02/26 03:19:00;;;;;;;7.93;2.42;;;;;;;12.03;58.75;98902.69;4988396;28;20097;-96
2024/02/26 03:21:27;;;;;;;2.92;2.20;;;;;;;12.15;59.25;98906.88;4987918;28;20095;-96
2024/02/26 03:23:52;;;;;;;5.70;3.00;;;;;;;12.09;60.07;98900.72;4988077;28;20033;-96
2024/02/26 03:26:18;;;;;;;6.97;2.80;;;;;;;12.15;59.08;98902.28;4988151;28;20034;-95
2024/02/26 03:28:43;;;;;;;3.67;2.40;;;;;;;12.14;59.17;98897.97;4987825;28;20028;-96
2024/02/26 03:31:10;;;;;;;4.13;2.20;;;;;;;12.17;58.71;98907.38;4988147;28;20064;-96
2024/02/26 03:33:36;;;;;;;4.63;2.47;;;;;;;12.21;58.51;98906.50;4988491;28;20032;-96
2024/02/26 03:36:02;;;;;;;4.90;2.10;;;;;;;12.29;58.53;98911.25;4988049;28;20029;-96
2024/02/26 03:38:29;;;;;;;4.97;2.83;;;;;;;12.22;58.27;98896.50;4988654;28;20037;-96
2024/02/26 03:40:54;;;;;;;4.15;2.58;;;;;;;12.24;57.87;98894.31;5003962;28;20041;-96
2024/02/26 03:43:21;;;;;;;5.38;2.72;;;;;;;12.23;57.95;98898.94;5004110;28;20552;-95
2024/02/26 03:45:46;;;;;;;4.97;2.85;;;;;;;12.24;57.62;98883.53;5003384;28;20029;-96
2024/02/26 03:48:12;;;;;;;6.32;3.72;;;;;;;12.29;58.05;98889.66;4987737;28;20064;-96
2024/02/26 03:50:38;;;;;;;5.72;3.30;;;;;;;12.33;57.96;98890.69;5020936;28;20162;-96
2024/02/26 03:53:03;;;;;;;7.35;3.10;;;;;;;12.38;57.89;98894.41;5003774;28;20399;-96
2024/02/26 03:55:29;;;;;;;4.85;2.60;;;;;;;12.32;57.05;98885.56;5005489;28;20021;-96
2024/02/26 03:57:57;;;;;;;6.55;2.65;;;;;;;12.21;57.81;98893.00;5021207;28;20144;-96
2024/02/26 04:00:22;;;;;;;11.75;3.03;;;;;;;12.23;58.02;98895.44;5005009;28;20017;-96
2024/02/26 04:02:48;;;;;;;12.02;3.08;;;;;;;12.39;57.96;98914.91;4987907;28;20032;-96
2024/02/26 04:05:14;;;;;;;9.43;2.67;;;;;;;12.31;58.23;98892.88;4988617;28;20032;-96
2024/02/26 04:07:42;;;;;;;6.18;2.78;;;;;;;12.45;57.78;98913.72;5003471;28;20088;-96
2024/02/26 04:10:11;;;;;;;4.50;3.00;;;;;;;12.53;57.55;98913.91;4986432;28;20025;-95
2024/02/26 04:12:40;;;;;;;14.35;3.13;;;;;;;12.51;57.23;98902.59;4987746;28;20083;-95
2024/02/26 04:15:07;;;;;;;5.13;2.35;;;;;;;12.55;56.59;98900.09;4986406;28;20021;-96
2024/02/26 04:17:33;;;;;;;4.07;2.65;;;;;;;12.68;56.66;98922.88;4986194;28;20104;-96
2024/02/26 04:19:58;;;;;;;5.10;2.63;;;;;;;12.71;56.53;98920.38;4986291;28;20103;-96
2024/02/26 04:22:24;;;;;;;4.35;2.55;;;;;;;12.78;56.25;98920.00;4985807;28;20053;-96
2024/02/26 04:24:49;;;;;;;5.07;2.40;;;;;;;12.73;56.54;98904.66;4987874;28;20017;-96
2024/02/26 04:27:15;;;;;;;6.88;2.55;;;;;;;12.74;55.88;98900.88;4986501;28;20554;-96
2024/02/26 04:29:41;;;;;;;3.83;2.40;;;;;;;12.83;55.76;98901.00;5002584;28;20037;-96
2024/02/26 04:32:06;;;;;;;3.90;2.35;;;;;;;12.87;55.29;98901.22;4986266;28;20018;-96
2024/02/26 04:34:32;;;;;;;5.22;2.63;;;;;;;12.83;55.37;98895.59;4986479;28;20021;-96
2024/02/26 04:36:57;;;;;;;4.15;2.40;;;;;;;12.91;55.23;98910.34;4987131;28;20041;-96
2024/02/26 04:39:23;;;;;;;8.52;2.72;;;;;;;12.97;55.35;98911.88;4986872;28;20109;-96
2024/02/26 04:41:48;;;;;;;3.90;2.88;;;;;;;13.07;55.04;98919.00;5019765;28;20025;-96
2024/02/26 04:44:14;;;;;;;8.02;2.67;;;;;;;13.06;54.95;98923.59;4987889;28;20092;-96
2024/02/26 04:46:40;;;;;;;7.60;2.80;;;;;;;13.03;55.68;98913.41;4988307;28;20037;-96
2024/02/26 04:49:05;;;;;;;5.82;2.92;;;;;;;12.96;54.98;98899.44;4987217;28;20507;-96
2024/02/26 04:51:31;;;;;;;7.00;3.00;;;;;;;13.05;55.11;98915.78;4987286;28;20116;-96
2024/02/26 04:53:57;;;;;;;12.45;3.28;;;;;;;13.14;55.42;98920.22;5018873;28;20032;-96
2024/02/26 05:16:11;;;;;;;9.30;3.28;;;;;;;13.25;54.90;98914.66;5066903;23;19940;-96
2024/02/26 05:18:36;;;;;;;13.65;3.25;;;;;;;13.24;54.64;98913.03;4984224;28;20029;-96
2024/02/26 05:21:03;;;;;;;6.88;3.15;;;;;;;13.23;54.57;98898.72;4981613;28;20069;-95
2024/02/26 05:23:30;;;;;;;6.68;3.17;;;;;;;13.29;54.66;98921.09;4981943;28;20026;-95
2024/02/26 05:25:55;;;;;;;7.22;3.58;;;;;;;13.31;54.69;98921.59;4982542;28;20095;-96
2024/02/26 05:28:21;;;;;;;10.38;3.65;;;;;;;13.43;54.80;98935.44;4967178;28;20041;-95
2024/02/26 05:30:49;;;;;;;21.23;5.43;;;;;;;13.31;54.93;98910.78;4982276;28;20057;-96
2024/02/26 05:33:19;;;;;;;15.13;4.25;;;;;;;13.36;54.41;98920.69;4983772;28;20104;-96
2024/02/26 05:35:48;;;;;;;17.48;4.70;;;;;;;13.47;55.05;98932.97;4984708;28;20026;-96
2024/02/26 05:38:13;;;;;;;17.52;6.35;;;;;;;13.50;54.99;98941.25;4967893;28;20490;-96
2024/02/26 05:40:47;;;;;;;11.48;5.10;;;;;;;13.45;55.04;98919.72;4983577;28;20030;-96
2024/02/26 05:43:21;;;;;;;10.05;5.18;;;;;;;13.44;55.17;98914.59;4984261;28;20507;-94
2024/02/26 05:45:50;;;;;;;13.82;3.92;;;;;;;13.61;54.38;98935.66;4985052;28;20386;-94
2024/02/26 05:48:19;;;;;;;5.78;3.80;;;;;;;13.62;54.25;98937.28;4969768;28;20037;-94
2024/02/26 05:50:45;;;;;;;13.63;5.03;;;;;;;13.56;54.39;98923.03;4995798;28;20036;-96
2024/02/26 05:53:18;;;;;;;21.25;4.90;;;;;;;13.66;54.15;98941.00;4997040;28;20068;-96
2024/02/26 05:55:47;;;;;;;8.40;4.05;;;;;;;13.64;54.28;98921.53;5001717;28;20053;-96
2024/02/26 05:58:15;;;;;;;12.77;4.80;;;;;;;13.70;53.64;98923.06;5008400;28;20128;-95
2024/02/26 06:00:42;;;;;;;8.45;4.10;;;;;;;13.71;53.18;98922.72;4992450;28;20569;-96
2024/02/26 06:03:14;;;;;;;11.13;4.70;;;;;;;13.80;53.53;98933.69;4990043;28;20033;-96
2024/02/26 06:05:40;;;;;;;10.30;5.43;;;;;;;13.88;53.77;98945.69;4987519;28;20033;-95
2024/02/26 06:08:06;;;;;;;19.13;9.30;;;;;;;13.90;53.71;98944.31;5002044;28;20037;-96
2024/02/26 06:10:44;;;;;;;19.50;8.15;;;;;;;14.03;53.97;98950.00;4988036;28;20044;-96
2024/02/26 06:13:10;;;;;;;24.60;10.90;;;;;;;14.05;54.51;98939.66;4987820;28;20119;-96
2024/02/26 06:15:35;;;;;;;21.58;9.10;;;;;;;14.10;54.18;98948.50;4989245;28;20049;-96
2024/02/26 06:18:04;;;;;;;20.40;7.80;;;;;;;14.22;53.97;98949.91;4990196;28;20602;-96
2024/02/26 06:20:41;;;;;;;17.73;7.07;;;;;;;14.38;52.84;98953.06;4977907;28;20025;-96
2024/02/26 06:23:59;;;;;;;17.20;7.45;;;;;;;14.51;54.21;98960.38;5064952;22;20041;-96
2024/02/26 06:26:41;;;;;;;14.77;6.10;;;;;;;14.51;53.41;98944.13;5315326;22;20063;-96
2024/02/26 06:30:18;;;;;;;;;;;;;;;;;;;;;
2024/02/26 06:32:32;;;;;;;23.50;7.88;;;;;;;14.87;51.45;98957.69;5018277;28;20124;-96
2024/02/26 06:35:11;;;;;;;16.35;6.38;;;;;;;14.85;50.92;98938.22;5012719;28;20029;-96
2024/02/26 06:37:40;;;;;;;12.05;6.53;;;;;;;15.01;51.51;98954.94;5014083;28;20026;-96
2024/02/26 06:40:24;;;;;;;25.38;7.90;;;;;;;15.03;52.63;98946.50;4999367;28;20033;-96
2024/02/26 06:43:00;;;;;;;26.30;7.80;;;;;;;14.93;53.35;98950.25;4984111;28;20082;-96
2024/02/26 06:45:30;;;;;;;29.77;8.65;;;;;;;15.00;52.40;98968.78;5023043;28;20080;-95
2024/02/26 06:47:56;;;;;;;16.08;6.53;;;;;;;15.08;51.91;98981.59;5011894;28;20021;-95
2024/02/26 06:51:01;;;;;;;14.50;6.40;;;;;;;15.00;51.47;98955.22;5010244;28;20025;-96
2024/02/26 06:53:32;;;;;;;41.75;18.50;;;;;;;15.08;50.63;98965.34;4994214;28;20041;-96
2024/02/26 06:56:07;;;;;;;37.50;18.85;;;;;;;15.12;50.43;98952.75;5043169;28;20038;-96
2024/02/26 07:01:40;;;;;;;23.92;11.65;;;;;;;15.27;51.33;98957.00;4967518;28;20031;-96
2024/02/26 07:04:40;;;;;;;27.50;12.32;;;;;;;15.35;51.93;98962.47;4962517;28;20103;-95
2024/02/26 07:07:53;;;;;;;23.50;9.57;;;;;;;15.56;51.36;98979.06;4907252;29;20045;-96
2024/02/26 07:10:36;;;;;;;18.92;6.88;;;;;;;15.48;50.84;98968.97;4874053;29;20045;-94
2024/02/26 07:13:28;;;;;;;20.35;7.05;;;;;;;15.57;50.39;98961.66;4868830;29;20045;-95
2024/02/26 07:26:59;;;;;;;7.22;2.97;;;;;;;16.31;46.39;98976.50;5043097;28;20053;-93
2024/02/26 07:29:35;;;;;;;9.32;3.88;;;;;;;16.38;45.73;98954.28;4992314;28;20123;-92
2024/02/26 07:32:03;;;;;;;6.93;3.72;;;;;;;16.54;46.41;98963.59;4997733;28;20034;-96
2024/02/26 07:38:56;;;;;;;14.70;9.60;;;;;;;16.83;45.69;98969.53;4995052;28;20060;-96
2024/02/26 07:41:22;;;;;;;9.63;4.45;;;;;;;16.83;44.95;98961.38;4998072;28;20058;-95
2024/02/26 07:43:58;;;;;;;8.02;3.78;;;;;;;16.91;44.01;98961.41;4964720;28;20034;-94
2024/02/26 07:46:29;;;;;;;29.23;16.40;;;;;;;17.05;43.43;98963.94;4982304;28;20060;-96
2024/02/26 08:15:58;;;;;;;9.40;3.80;;;;;;;18.02;41.33;98964.50;4967175;28;20051;-96
2024/02/26 08:18:33;;;;;;;9.82;2.78;;;;;;;18.11;40.08;98967.97;4920776;29;20126;-96
2024/02/26 08:22:06;;;;;;;12.30;3.00;;;;;;;18.32;39.23;98979.75;4924145;28;20023;-96
2024/02/26 08:24:31;;;;;;;14.60;3.60;;;;;;;18.37;38.73;98956.94;4853634;29;20029;-96
2024/02/26 08:27:02;;;;;;;10.02;5.35;;;;;;;18.48;38.47;98957.34;4912580;29;20030;-96
2024/02/26 08:29:32;;;;;;;9.30;3.40;;;;;;;18.56;38.17;98965.47;4915171;29;20113;-95
2024/02/26 08:32:07;;;;;;;4.47;2.70;;;;;;;18.54;37.76;98958.75;4915227;29;20023;-96
2024/02/26 08:34:35;;;;;;;6.97;3.05;;;;;;;18.62;37.86;98968.00;4926659;29;20498;-96
2024/02/26 08:41:13;;;;;;;14.20;3.45;;;;;;;18.77;39.14;98986.50;4916227;29;20088;-96
2024/02/26 08:43:38;;;;;;;4.55;2.63;;;;;;;18.57;38.66;98977.16;4901113;29;20063;-96
2024/02/26 08:46:13;;;;;;;8.15;2.97;;;;;;;18.52;38.60;98959.06;4909324;29;20083;-95
2024/02/26 08:49:26;;;;;;;17.48;10.57;;;;;;;18.69;38.53;98971.00;4906838;29;20032;-96
2024/02/26 08:51:36;;;;;;;5.28;2.28;;;;;;;18.55;37.85;98952.16;4920275;29;20051;-96
2024/02/26 08:57:28;;;;;;;5.10;1.90;;;;;;;18.57;36.85;98955.34;4828530;29;20482;-95
2024/02/26 09:00:00;;;;;;;6.85;2.83;;;;;;;18.64;36.47;98972.00;4880852;29;20535;-96
2024/02/26 09:02:26;;;;;;;11.18;3.58;;;;;;;18.58;36.76;98962.41;5020502;23;20055;-93
2024/02/26 09:04:55;;;;;;;13.02;9.70;;;;;;;18.54;37.41;98953.28;4888615;29;20067;-96
2024/02/26 09:07:33;;;;;;;12.90;5.40;;;;;;;18.63;37.36;98959.47;4857004;29;20049;-95
2024/02/26 09:10:01;;;;;;;6.53;1.85;;;;;;;18.48;35.82;98976.44;4874138;29;20060;-93
2024/02/26 09:12:27;;;;;;;3.53;1.60;;;;;;;18.47;35.92;98964.72;4862228;29;20044;-93
2024/02/26 09:14:52;;;;;;;5.68;2.75;;;;;;;18.56;36.07;98965.47;4843220;29;20037;-93
2024/02/26 09:17:20;;;;;;;48.20;40.55;;;;;;;18.48;35.61;98957.34;4816118;29;20061;-95
2024/02/26 09:19:55;;;;;;;10.77;5.72;;;;;;;18.47;35.99;98955.72;4850932;29;20041;-96
2024/02/26 09:26:18;;;;;;;4.10;2.20;;;;;;;18.46;35.28;98954.16;4874205;29;20112;-94
2024/02/26 09:28:47;;;;;;;8.07;2.70;;;;;;;18.41;35.50;98946.97;4855450;29;20041;-95
2024/02/26 09:31:15;;;;;;;8.20;3.75;;;;;;;18.42;35.31;98945.81;4839249;29;20069;-96
2024/02/26 09:33:52;;;;;;;9.15;4.53;;;;;;;18.56;35.92;98967.41;4851170;29;20591;-96
2024/02/26 09:36:18;;;;;;;16.58;3.40;;;;;;;18.49;35.54;98951.56;4863178;29;20120;-96
2024/02/26 09:39:11;;;;;;;12.93;2.78;;;;;;;18.45;35.36;98947.09;4872129;29;20055;-96
2024/02/26 09:41:56;;;;;;;7.35;1.80;;;;;;;18.30;34.79;98946.56;4902912;29;20039;-96
2024/02/26 09:48:03;;;;;;;6.72;1.90;;;;;;;18.19;35.00;98948.06;4830503;29;20046;-96
2024/02/26 09:53:22;;;;;;;5.38;1.80;;;;;;;18.43;33.89;98952.91;4802663;30;20055;-96
2024/02/26 09:55:51;;;;;;;2.83;1.55;;;;;;;18.47;33.57;98958.47;4809255;29;20042;-95
2024/02/26 10:20:24;;;;;;;3.15;1.67;;;;;;;18.84;29.90;98901.41;5004496;23;20058;-96
2024/02/26 10:30:27;;;;;;;9.35;1.95;;;;;;;19.27;29.98;98919.31;4949652;28;20086;-96
2024/02/26 10:34:04;;;;;;;8.82;2.08;;;;;;;19.15;30.57;98909.13;4934403;29;20087;-96
2024/02/26 10:46:07;;;;;;;3.78;1.65;;;;;;;19.57;27.78;98870.78;4913002;29;20475;-96
2024/02/26 10:52:33;;;;;;;26.10;3.00;;;;;;;19.70;28.92;98875.13;4894351;29;20055;-96
2024/02/26 10:55:18;;;;;;;;;;;;;;;;;;;;;
2024/02/26 10:58:17;;;;;;;3.47;1.45;;;;;;;19.75;28.33;98850.31;4970687;28;20102;-95
2024/02/26 11:00:57;;;;;;;4.72;1.83;;;;;;;19.91;28.06;98866.81;4970777;28;20045;-95
2024/02/26 11:03:38;;;;;;;;;;;;;;;;;;;;;
2024/02/26 11:06:46;;;;;;;;;;;;;;;;;;;;;
2024/02/26 11:09:51;;;;;;;2.63;1.30;;;;;;;19.95;26.83;98847.78;5010371;28;20124;-96
2024/02/26 11:12:17;;;;;;;7.90;1.95;;;;;;;19.87;26.23;98833.13;5000061;28;20667;-94
2024/02/26 11:14:45;;;;;;;6.28;2.50;;;;;;;19.92;26.21;98824.69;4969042;28;20177;-96
2024/02/26 11:17:17;;;;;;;6.97;3.72;;;;;;;20.11;26.74;98837.75;4974586;28;20038;-96
2024/02/26 11:31:36;;;;;;;;;;;;;;;;;;;;;
2024/02/26 11:34:50;;;;;;;3.00;1.52;;;;;;;20.27;24.82;98798.75;4903553;29;20071;-96
2024/02/26 11:37:50;;;;;;;3.15;1.60;;;;;;;20.22;25.60;98797.06;4951743;23;20496;-96
2024/02/26 12:21:27;;;;;;;;;;;;;;;;;;;;;
2024/02/26 12:24:24;;;;;;;3.72;1.60;;;;;;;20.39;25.17;98824.09;4954203;28;20130;-96
2024/02/26 12:27:20;;;;;;;;;;;;;;;;;;;;;
2024/02/26 12:30:42;;;;;;;;;;;;;;;;;;;;;
2024/02/26 12:36:40;;;;;;;6.40;1.70;;;;;;;20.41;24.25;98810.09;4908617;29;20422;-95
2024/02/26 12:39:49;;;;;;;3.60;1.60;;;;;;;20.42;24.82;98800.75;4931736;29;20038;-96
2024/02/26 12:43:14;;;;;;;2.70;1.50;;;;;;;20.49;23.65;98800.16;4956805;29;20501;-96
2024/02/26 12:48:25;;;;;;;9.25;2.28;;;;;;;20.59;24.39;98818.81;5074559;23;20109;-96
2024/02/26 12:51:15;;;;;;;4.63;1.27;;;;;;;20.45;23.93;98797.31;4955319;28;20121;-96
2024/02/26 12:53:46;;;;;;;9.23;2.05;;;;;;;20.54;24.02;98799.88;4956008;28;20029;-96
2024/02/26 12:56:13;;;;;;;;;;;;;;;20.71;24.76;98828.91;4947253;28;20030;-96
2024/02/26 12:58:49;;;;;;;;;;;;;;;;;;;;;
2024/02/26 13:01:20;;;;;;;9.63;2.35;;;;;;;20.79;23.68;98831.50;4966177;28;20101;-96
2024/02/26 13:03:51;;;;;;;6.37;2.63;;;;;;;20.67;23.75;98800.66;4947941;28;20041;-95
2024/02/26 13:06:17;;;;;;;5.90;2.22;;;;;;;20.69;23.68;98804.63;4936567;28;20030;-95
2024/02/26 13:08:43;;;;;;;4.40;1.77;;;;;;;20.76;23.69;98810.28;4945308;28;20036;-95
2024/02/26 13:11:19;;;;;;;9.88;3.00;;;;;;;20.87;24.20;98829.72;4941524;28;20035;-93
2024/02/26 13:13:51;;;;;;;6.60;2.03;;;;;;;20.93;24.00;98825.59;4948338;28;20150;-93
2024/02/26 13:16:16;;;;;;;3.85;1.85;;;;;;;21.01;23.83;98840.25;4962523;28;21152;-93
2024/02/26 13:18:50;;;;;;;14.30;2.22;;;;;;;20.47;23.75;98816.09;4949193;28;20098;-95
2024/02/26 13:24:06;;;;;;;4.80;1.50;;;;;;;20.24;23.99;98827.56;4978722;28;20071;-94
2024/02/26 13:34:30;;;;;;;4.25;1.85;;;;;;;19.91;24.32;98842.22;5242163;23;20054;-96
2024/02/26 13:37:25;;;;;;;;;;;;;;;;;;;;;
2024/02/26 13:47:31;;;;;;;6.82;2.65;;;;;;;19.66;24.88;98857.00;4969604;28;20521;-96
2024/02/26 13:50:00;;;;;;;5.30;1.88;;;;;;;19.53;24.05;98848.03;4924872;28;20493;-95
2024/02/26 13:52:36;;;;;;;;;;;;;;;;;;;;;
2024/02/26 13:55:32;;;;;;;7.05;2.63;;;;;;;19.50;25.20;98837.78;4943718;28;20121;-96
2024/02/26 13:58:33;;;;;;;11.45;3.45;;;;;;;19.54;25.04;98839.47;4938008;28;20035;-96
2024/02/26 14:01:33;;;;;;;;;;;;;;;;;;;;;
2024/02/26 14:04:17;;;;;;;7.32;3.50;;;;;;;19.33;25.63;98852.44;4947795;28;20137;-96
2024/02/26 14:07:32;;;;;;;13.20;3.03;;;;;;;19.33;25.79;98836.84;4961655;28;20508;-96
2024/02/26 14:10:19;;;;;;;4.90;2.40;;;;;;;19.43;26.31;98856.66;4888095;29;20052;-96
2024/02/26 14:12:50;;;;;;;7.57;2.60;;;;;;;19.40;26.46;98871.78;4882867;29;20065;-96
2024/02/26 14:15:45;;;;;;;32.22;7.90;;;;;;;19.31;26.41;98851.97;4942473;28;20086;-96
2024/02/26 14:18:25;;;;;;;8.80;2.85;;;;;;;19.30;27.22;98853.09;4937956;28;20054;-95
2024/02/26 14:21:09;;;;;;;9.27;3.35;;;;;;;19.31;27.64;98857.44;4954248;28;20027;-96
2024/02/26 14:26:53;;;;;;;6.68;2.65;;;;;;;19.32;28.38;98881.69;5356269;23;21073;-94
2024/02/26 14:32:37;;;;;;;9.80;2.95;;;;;;;19.16;28.19;98880.72;4910106;29;20029;-96
2024/02/26 14:35:54;;;;;;;27.88;4.60;;;;;;;18.93;28.15;98864.75;4965049;29;20062;-96
2024/02/26 14:39:38;;;;;;;;;;;;;;;;;;;;;
2024/02/26 14:48:18;;;;;;;;;;;;;;;;;;;;;
2024/02/26 14:50:53;;;;;;;11.23;3.38;;;;;;;18.45;30.03;98879.75;4912249;29;20077;-96
2024/02/26 14:56:58;;;;;;;;;;;;;;;;;;;;;
2024/02/26 15:02:54;;;;;;;33.80;15.25;;;;;;;18.27;30.27;98876.34;5113421;23;20133;-96
2024/02/26 15:05:37;;;;;;;7.70;4.22;;;;;;;18.35;30.60;98905.47;4903096;29;20052;-95
2024/02/26 15:08:09;;;;;;;8.40;4.00;;;;;;;18.20;30.91;98892.44;4914946;29;20062;-96
2024/02/26 15:18:15;;;;;;;;;;;;;;;;;;;;;
2024/02/26 15:20:48;;;;;;;20.38;4.18;;;;;;;18.02;32.20;98912.75;5030192;23;20060;-96
2024/02/26 15:23:27;;;;;;;7.18;3.88;;;;;;;17.97;31.85;98905.53;4935255;29;20047;-96
2024/02/26 15:25:53;;;;;;;10.32;6.72;;;;;;;17.92;32.72;98914.69;4938552;29;20062;-96
2024/02/26 15:28:28;;;;;;;10.98;5.80;;;;;;;17.86;32.48;98910.56;4916951;29;20031;-95
2024/02/26 15:30:55;;;;;;;12.98;4.97;;;;;;;17.73;33.20;98927.91;4915396;29;20043;-96
2024/02/26 15:33:21;;;;;;;12.95;5.80;;;;;;;17.69;33.19;98924.25;4904050;29;20043;-96
2024/02/26 15:35:47;;;;;;;12.00;4.05;;;;;;;17.67;33.54;98908.22;4900823;29;20066;-95
2024/02/26 15:38:48;;;;;;;23.63;5.45;;;;;;;17.64;33.21;98918.97;4932273;29;20035;-96
2024/02/26 15:41:17;;;;;;;15.43;5.70;;;;;;;17.69;33.37;98940.59;4913613;29;20044;-94
2024/02/26 15:43:46;;;;;;;10.95;4.90;;;;;;;17.64;33.76;98930.69;4870137;29;20044;-96
2024/02/26 15:46:20;;;;;;;19.20;10.63;;;;;;;17.62;33.96;98940.28;4879856;29;20036;-96
2024/02/26 15:49:19;;;;;;;15.02;5.15;;;;;;;17.45;34.23;98916.63;4876759;29;20045;-96
2024/02/26 15:51:47;;;;;;;8.80;3.85;;;;;;;17.41;34.13;98932.84;4887626;29;20536;-96
2024/02/26 15:54:28;;;;;;;8.98;3.83;;;;;;;17.40;34.60;98935.88;4901822;29;20043;-96
2024/02/26 15:57:20;;;;;;;16.55;4.20;;;;;;;17.17;34.82;98917.03;4952888;28;20051;-96
2024/02/26 15:59:49;;;;;;;12.48;4.80;;;;;;;17.15;35.01;98943.78;4949812;28;20094;-96
2024/02/26 16:02:14;;;;;;;12.32;4.38;;;;;;;17.07;35.53;98933.69;4950153;28;20041;-96
2024/02/26 16:05:14;;;;;;;9.27;3.70;;;;;;;17.00;35.31;98927.97;4935398;28;20539;-96
2024/02/26 16:08:11;;;;;;;10.60;4.45;;;;;;;16.85;35.49;98935.50;4967928;28;20038;-95
2024/02/26 16:10:40;;;;;;;;;;;;;;;16.93;35.74;98953.72;4934899;28;20160;-96
2024/02/26 16:13:06;;;;;;;12.90;5.00;;;;;;;16.81;35.62;98941.88;4966522;28;20460;-95
2024/02/26 16:15:37;;;;;;;8.13;4.25;;;;;;;16.71;36.04;98929.38;4928886;28;20043;-95
2024/02/26 16:18:06;;;;;;;15.10;5.80;;;;;;;16.71;36.49;98942.97;4965200;28;20039;-96
2024/02/26 16:20:43;;;;;;;24.02;6.32;;;;;;;16.77;37.02;98964.25;4933061;28;20089;-95
2024/02/26 16:23:23;;;;;;;26.08;8.27;;;;;;;16.64;37.20;98959.75;4957332;28;20046;-96
2024/02/26 16:25:57;;;;;;;10.40;5.68;;;;;;;16.62;36.97;98970.16;4966876;28;20413;-96
2024/02/26 16:28:43;;;;;;;13.38;4.45;;;;;;;16.45;37.60;98956.53;4932785;28;20070;-96
2024/02/26 16:31:09;;;;;;;13.80;5.47;;;;;;;16.40;37.46;98967.56;4975808;28;20133;-94
2024/02/26 16:33:44;;;;;;;15.52;7.32;;;;;;;16.31;37.48;98970.25;4955327;28;20416;-96